Time;durP1;ratioP1;P1;durP2;ratioP2;P2;SDS_P1;SDS_P2;PMS_P1;PMS_P2;Temp;Humidity;BMP_temperature;BMP_pressure;BME280_temperature;BME280_humidity;BME280_pressure;Samples;Min_cycle;Max_cycle;Signal;HPM_P1;HPM_P2
2021/10/18 00:00:11;;;;;;;43.20;25.15;;;256.60;2252.80;;;;;;5092832;28;20402;-80
2021/10/18 00:02:37;;;;;;;34.28;21.98;;;256.60;2252.80;;;;;;5092016;28;20042;-80
2021/10/18 00:05:05;;;;;;;38.10;22.85;;;256.60;2252.80;;;;;;5093151;28;20455;-79
2021/10/18 00:07:31;;;;;;;40.08;23.63;;;256.70;2252.80;;;;;;5093442;28;20487;-80
2021/10/18 00:09:56;;;;;;;37.72;21.88;;;256.70;2252.80;;;;;;5093953;28;20044;-80
2021/10/18 00:12:22;;;;;;;33.72;22.58;;;256.80;2252.80;;;;;;5093261;28;20028;-79
2021/10/18 00:14:48;;;;;;;;;;;256.70;2252.80;;;;;;5093536;28;20016;-79
2021/10/18 00:17:14;;;;;;;36.53;22.85;;;256.70;2252.80;;;;;;5094365;28;19947;-80
2021/10/18 00:19:39;;;;;;;;;;;256.60;2252.80;;;;;;5093403;28;20494;-79
2021/10/18 00:22:05;;;;;;;40.35;23.90;;;256.60;2252.80;;;;;;5093007;28;20105;-79
2021/10/18 00:24:31;;;;;;;40.17;23.10;;;256.60;2252.80;;;;;;5093318;28;20032;-80
2021/10/18 00:26:57;;;;;;;51.47;28.15;;;256.60;2252.80;;;;;;5092831;28;20017;-79
2021/10/18 00:29:22;;;;;;;;;;;256.50;2252.80;;;;;;5094334;28;20082;-78
2021/10/18 00:31:49;;;;;;;57.92;33.85;;;256.50;2252.80;;;;;;5092299;28;19912;-79
2021/10/18 00:34:14;;;;;;;84.57;47.40;;;256.50;2252.80;;;;;;5093820;28;20463;-79
2021/10/18 00:36:40;;;;;;;61.63;38.67;;;256.50;2252.80;;;;;;5092330;28;20136;-80
2021/10/18 00:39:06;;;;;;;60.13;35.70;;;256.60;2252.80;;;;;;5092789;28;20069;-80
2021/10/18 00:41:31;;;;;;;;;;;256.60;2252.80;;;;;;5092871;28;20016;-81
2021/10/18 00:43:57;;;;;;;66.55;37.63;;;256.70;2252.80;;;;;;5094146;28;19910;-80
2021/10/18 00:46:24;;;;;;;63.50;37.97;;;256.60;2252.80;;;;;;5093743;28;20110;-80
2021/10/18 00:48:52;;;;;;;78.53;44.33;;;256.60;2252.80;;;;;;5092786;28;20012;-80
2021/10/18 00:51:21;;;;;;;64.68;38.63;;;256.60;2252.80;;;;;;5089601;28;20054;-80
2021/10/18 00:53:47;;;;;;;65.70;39.53;;;256.70;2252.80;;;;;;5092894;28;20106;-80
2021/10/18 00:56:14;;;;;;;61.35;38.05;;;256.60;2252.80;;;;;;5092537;28;20020;-80
2021/10/18 00:58:41;;;;;;;58.42;36.13;;;256.50;2252.80;;;;;;5091392;28;20027;-81
2021/10/18 01:01:07;;;;;;;61.97;35.85;;;256.60;2252.80;;;;;;5093909;28;20042;-81
2021/10/18 01:03:35;;;;;;;63.58;37.45;;;256.70;2252.80;;;;;;5092580;28;20043;-81
2021/10/18 01:06:01;;;;;;;57.22;36.25;;;256.70;2252.80;;;;;;5090206;28;20043;-81
2021/10/18 01:08:27;;;;;;;56.72;37.45;;;256.80;2252.80;;;;;;5092496;28;20028;-81
2021/10/18 01:10:52;;;;;;;;;;;256.80;2252.80;;;;;;5092915;28;20135;-81
2021/10/18 01:13:18;;;;;;;67.70;40.42;;;256.70;2252.80;;;;;;5093123;28;20363;-81
2021/10/18 01:15:44;;;;;;;70.93;41.67;;;256.60;2252.80;;;;;;5092672;28;20489;-82
2021/10/18 01:18:10;;;;;;;66.15;39.55;;;256.60;2252.80;;;;;;5092613;28;20024;-82
2021/10/18 01:20:36;;;;;;;;;;;256.30;2252.80;;;;;;5083914;28;20039;-81
2021/10/18 01:23:03;;;;;;;55.58;32.05;;;256.00;2252.80;;;;;;5092713;28;20355;-81
2021/10/18 01:25:29;;;;;;;62.75;36.38;;;231.20;2252.80;;;;;;5092751;28;20024;-81
2021/10/18 01:27:55;;;;;;;66.90;38.90;;;231.30;2252.80;;;;;;5093508;28;20142;-81
2021/10/18 01:30:22;;;;;;;61.97;37.97;;;256.00;2252.80;;;;;;5089019;28;20036;-81
2021/10/18 01:32:47;;;;;;;62.28;36.25;;;256.10;2252.80;;;;;;5092319;28;20502;-82
2021/10/18 01:35:13;;;;;;;71.05;40.38;;;256.10;2252.80;;;;;;5092075;28;20048;-81
2021/10/18 01:37:39;;;;;;;;;;;231.30;2252.80;;;;;;5092786;28;20028;-81
2021/10/18 01:40:08;;;;;;;45.35;27.77;;;231.20;2252.80;;;;;;5096116;28;20400;-81
2021/10/18 01:42:33;;;;;;;53.22;31.70;;;231.30;2252.80;;;;;;5096280;28;20028;-81
2021/10/18 01:44:59;;;;;;;53.58;33.78;;;231.30;2252.80;;;;;;5096613;28;20027;-81
2021/10/18 01:47:27;;;;;;;52.78;31.38;;;256.00;2252.80;;;;;;5095902;28;20020;-80
2021/10/18 01:49:54;;;;;;;53.60;31.10;;;256.00;2252.80;;;;;;5096569;28;20024;-81
2021/10/18 01:52:20;;;;;;;46.35;28.77;;;231.30;2252.80;;;;;;5096069;28;20063;-81
2021/10/18 01:54:46;;;;;;;40.22;26.98;;;231.20;2252.80;;;;;;5096123;28;20036;-80
2021/10/18 01:57:12;;;;;;;47.33;30.20;;;231.20;2252.80;;;;;;5095985;28;20031;-81
2021/10/18 01:59:38;;;;;;;49.22;30.50;;;231.20;2252.80;;;;;;5095590;28;20020;-81
2021/10/18 02:02:03;;;;;;;;;;;231.20;2252.80;;;;;;5096295;28;20585;-82
2021/10/18 02:04:29;;;;;;;46.95;30.50;;;231.20;2252.80;;;;;;5095374;28;19949;-81
2021/10/18 02:06:54;;;;;;;;;;;231.10;2252.80;;;;;;5096209;28;20487;-82
2021/10/18 02:09:20;;;;;;;46.53;27.67;;;231.10;2252.80;;;;;;5095766;28;19969;-81
2021/10/18 02:11:46;;;;;;;;;;;231.20;2252.80;;;;;;5096014;28;20040;-82
2021/10/18 02:14:11;;;;;;;46.63;29.00;;;231.20;2252.80;;;;;;5095590;28;19904;-81
2021/10/18 02:16:37;;;;;;;;;;;231.10;2252.80;;;;;;5097349;28;20028;-81
2021/10/18 02:19:03;;;;;;;44.25;29.45;;;231.10;2252.80;;;;;;5095498;28;20317;-82
2021/10/18 02:21:28;;;;;;;;;;;231.10;2252.80;;;;;;5097326;28;20020;-82
2021/10/18 02:23:54;;;;;;;50.67;29.92;;;231.20;2252.80;;;;;;5095522;28;20355;-81
2021/10/18 02:26:19;;;;;;;;;;;231.20;2252.80;;;;;;5095583;28;20024;-80
2021/10/18 02:28:45;;;;;;;53.80;31.15;;;231.10;2252.80;;;;;;5090475;28;19904;-81
2021/10/18 02:31:11;;;;;;;;;;;231.20;2252.80;;;;;;5095741;28;20024;-81
2021/10/18 02:33:36;;;;;;;49.00;29.13;;;231.20;2252.80;;;;;;5096868;28;19904;-82
2021/10/18 02:36:02;;;;;;;;;;;231.20;2252.80;;;;;;5095898;28;20054;-81
2021/10/18 02:38:28;;;;;;;50.63;31.35;;;231.10;2252.80;;;;;;5095153;28;20358;-81
2021/10/18 02:40:54;;;;;;;;;;;231.10;2252.80;;;;;;5091426;28;20157;-81
2021/10/18 02:43:20;;;;;;;50.08;30.70;;;231.10;2252.80;;;;;;5088422;28;19904;-82
2021/10/18 02:45:48;;;;;;;51.78;32.03;;;231.00;2252.80;;;;;;5095343;28;20016;-82
2021/10/18 02:48:15;;;;;;;50.35;31.95;;;230.90;2252.80;;;;;;5094998;28;20024;-83
2021/10/18 02:50:40;;;;;;;56.63;32.90;;;230.90;2252.80;;;;;;5093788;28;20081;-81
2021/10/18 02:53:06;;;;;;;50.00;33.45;;;231.00;2252.80;;;;;;5095119;28;20028;-81
2021/10/18 02:55:32;;;;;;;;;;;231.10;2252.80;;;;;;5096838;28;20020;-82
2021/10/18 02:57:58;;;;;;;52.30;32.33;;;231.10;2252.80;;;;;;5094963;28;19912;-81
2021/10/18 03:00:24;;;;;;;;;;;231.10;2252.80;;;;;;5092378;28;20088;-81
2021/10/18 03:02:49;;;;;;;51.10;32.47;;;231.10;2252.80;;;;;;5094008;28;19904;-81
2021/10/18 03:05:15;;;;;;;;;;;231.00;2252.80;;;;;;5096348;28;20038;-81
2021/10/18 03:07:41;;;;;;;48.78;30.95;;;231.00;2252.80;;;;;;5094543;28;19989;-81
2021/10/18 03:10:07;;;;;;;;;;;230.80;2252.80;;;;;;5095081;28;20495;-81
2021/10/18 03:12:33;;;;;;;46.83;30.00;;;230.90;2252.80;;;;;;5094728;28;19908;-81
2021/10/18 03:14:59;;;;;;;51.08;30.98;;;230.80;2252.80;;;;;;5094714;28;20479;-81
2021/10/18 03:17:26;;;;;;;;;;;230.80;2252.80;;;;;;5095386;28;20016;-81
2021/10/18 03:19:51;;;;;;;46.80;28.70;;;230.90;2252.80;;;;;;5094805;28;19975;-81
2021/10/18 03:22:17;;;;;;;;;;;230.90;2252.80;;;;;;5094592;28;20116;-81
2021/10/18 03:24:43;;;;;;;43.60;27.38;;;230.90;2252.80;;;;;;5094629;28;20336;-81
2021/10/18 03:27:09;;;;;;;;;;;230.90;2252.80;;;;;;5096012;28;20023;-81
2021/10/18 03:29:34;;;;;;;34.05;24.92;;;230.80;2252.80;;;;;;5094412;28;20283;-79
2021/10/18 03:32:00;;;;;;;;;;;230.70;2252.80;;;;;;5094254;28;20040;-78
2021/10/18 03:34:26;;;;;;;40.17;24.75;;;230.60;2252.80;;;;;;5094069;28;20256;-79
2021/10/18 03:36:51;;;;;;;;;;;230.70;2252.80;;;;;;5095534;28;20051;-79
2021/10/18 03:39:17;;;;;;;36.45;25.05;;;230.70;2252.80;;;;;;5093921;28;19908;-81
2021/10/18 03:41:43;;;;;;;;;;;230.70;2252.80;;;;;;5090920;28;20032;-81
2021/10/18 03:44:09;;;;;;;35.65;23.75;;;230.70;2252.80;;;;;;5094094;28;19907;-81
2021/10/18 03:46:34;;;;;;;;;;;230.60;2252.80;;;;;;5094086;28;20028;-81
2021/10/18 03:49:00;;;;;;;33.30;21.75;;;230.60;2252.80;;;;;;5093690;28;19923;-79
2021/10/18 03:51:26;;;;;;;;;;;230.60;2252.80;;;;;;5091161;28;20541;-79
2021/10/18 03:53:52;;;;;;;34.40;24.17;;;230.50;2252.80;;;;;;5093811;28;19904;-80
2021/10/18 03:56:17;;;;;;;;;;;230.40;2252.80;;;;;;5093465;28;20165;-80
2021/10/18 03:58:43;;;;;;;35.63;23.65;;;230.40;2252.80;;;;;;5093462;28;19927;-80
2021/10/18 04:01:09;;;;;;;;;;;230.50;2252.80;;;;;;5094032;28;20506;-80
2021/10/18 04:03:38;;;;;;;34.72;23.15;;;230.40;2252.80;;;;;;5093349;28;19911;-76
2021/10/18 04:06:04;;;;;;;33.75;22.83;;;230.40;2252.80;;;;;;5093554;28;20107;-80
2021/10/18 04:08:33;;;;;;;37.88;25.10;;;230.40;2252.80;;;;;;5093425;28;20020;-79
2021/10/18 04:11:00;;;;;;;36.30;24.33;;;230.40;2252.80;;;;;;5093349;28;20040;-80
2021/10/18 04:13:26;;;;;;;43.53;26.88;;;230.90;2252.80;;;;;;5093498;28;20111;-80
2021/10/18 04:15:52;;;;;;;;;;;230.40;2252.80;;;;;;5088888;28;20067;-80
2021/10/18 04:18:18;;;;;;;41.83;26.13;;;230.40;2252.80;;;;;;5073720;28;19966;-80
2021/10/18 04:20:45;;;;;;;40.25;26.27;;;230.40;2252.80;;;;;;5091802;28;20028;-80
2021/10/18 04:23:10;;;;;;;42.75;27.35;;;205.70;2252.80;;;;;;5090754;28;20036;-80
2021/10/18 04:25:36;;;;;;;;;;;205.60;2252.80;;;;;;5093574;28;20035;-80
2021/10/18 04:28:02;;;;;;;40.38;26.65;;;205.60;2252.80;;;;;;5092697;28;19908;-80
2021/10/18 04:30:27;;;;;;;;;;;205.60;2252.80;;;;;;5093076;28;20032;-81
2021/10/18 04:32:54;;;;;;;41.95;27.35;;;205.40;2252.80;;;;;;5092144;28;20244;-79
2021/10/18 04:35:20;;;;;;;39.95;27.52;;;205.40;2252.80;;;;;;5092939;28;20041;-80
2021/10/18 04:37:45;;;;;;;;;;;205.40;2252.80;;;;;;5093413;28;20024;-80
2021/10/18 04:40:12;;;;;;;36.60;24.65;;;205.40;2252.80;;;;;;5092215;28;20351;-79
2021/10/18 04:42:38;;;;;;;42.90;25.02;;;205.40;2252.80;;;;;;5088092;28;20028;-80
2021/10/18 04:45:04;;;;;;;;;;;205.40;2252.80;;;;;;5089928;28;20029;-82
2021/10/18 04:47:30;;;;;;;37.03;25.58;;;205.40;2252.80;;;;;;5082818;28;19911;-80
2021/10/18 04:49:55;;;;;;;;;;;205.40;2252.80;;;;;;5108212;28;20475;-81
2021/10/18 04:52:21;;;;;;;48.42;27.23;;;205.40;2252.80;;;;;;5130056;27;19915;-79
2021/10/18 04:54:46;;;;;;;;;;;205.40;2252.80;;;;;;5107201;27;20027;-80
2021/10/18 04:57:13;;;;;;;57.63;34.58;;;205.40;2252.80;;;;;;5074595;28;20003;-79
2021/10/18 04:59:38;;;;;;;74.35;41.38;;;205.50;2252.80;;;;;;5093864;28;20059;-80
2021/10/18 05:02:04;;;;;;;;;;;205.60;2252.80;;;;;;5085742;28;20025;-79
2021/10/18 05:04:30;;;;;;;98.80;47.70;;;205.60;2252.80;;;;;;5089093;28;19987;-79
2021/10/18 05:06:56;;;;;;;;;;;205.60;2252.80;;;;;;5094151;28;20024;-80
2021/10/18 05:09:21;;;;;;;107.75;50.35;;;205.70;2252.80;;;;;;5093463;28;19923;-80
2021/10/18 05:11:47;;;;;;;;;;;205.70;2252.80;;;;;;5093616;28;20039;-79
2021/10/18 05:14:13;;;;;;;122.13;56.50;;;205.70;2252.80;;;;;;5091187;28;19904;-80
2021/10/18 05:16:39;;;;;;;;;;;230.40;2252.80;;;;;;5092564;28;20395;-80
2021/10/18 05:19:05;;;;;;;132.52;58.35;;;230.40;2252.80;;;;;;5091944;28;19999;-79
2021/10/18 05:21:31;;;;;;;;;;;230.40;2252.80;;;;;;5093606;28;20119;-79
2021/10/18 05:23:56;;;;;;;137.80;64.30;;;230.40;2252.80;;;;;;5092049;28;19918;-79
2021/10/18 05:26:22;;;;;;;;;;;230.40;2252.80;;;;;;5092236;28;20639;-79
2021/10/18 05:28:48;;;;;;;180.57;76.25;;;230.40;2252.80;;;;;;5075727;28;20348;-79
2021/10/18 05:31:13;;;;;;;;;;;230.50;2252.80;;;;;;5072199;28;20400;-78
2021/10/18 05:33:39;;;;;;;130.00;60.20;;;230.50;2252.80;;;;;;5072097;28;20271;-80
2021/10/18 05:36:05;;;;;;;;;;;230.50;2252.80;;;;;;5074122;28;20443;-79
2021/10/18 05:38:30;;;;;;;97.10;51.22;;;230.50;2252.80;;;;;;5091887;28;20313;-79
2021/10/18 05:40:56;;;;;;;;;;;230.50;2252.80;;;;;;5093565;28;20028;-81
2021/10/18 05:43:22;;;;;;;71.40;42.80;;;230.50;2252.80;;;;;;5091374;28;19908;-77
2021/10/18 05:45:47;;;;;;;;;;;230.40;2252.80;;;;;;5090910;28;20012;-78
2021/10/18 05:48:15;;;;;;;53.55;33.22;;;205.70;2252.80;;;;;;5091031;28;19912;-78
2021/10/18 05:50:44;;;;;;;57.53;34.25;;;205.60;2252.80;;;;;;5090743;28;20557;-75
2021/10/18 05:53:10;;;;;;;57.10;34.00;;;205.70;2252.80;;;;;;5072931;28;20035;-76
2021/10/18 05:55:36;;;;;;;54.75;33.20;;;205.70;2252.80;;;;;;5088177;28;20024;-78
2021/10/18 05:58:03;;;;;;;;;;;205.70;2252.80;;;;;;5092622;28;20039;-79
2021/10/18 06:00:37;;;;;;;47.13;28.65;;;230.50;2252.80;;;;;;5091878;28;19908;-80
2021/10/18 06:03:03;;;;;;;79.90;49.47;;;230.40;2252.80;;;;;;5091495;28;20085;-78
2021/10/18 06:05:29;;;;;;;60.58;39.03;;;230.40;2252.80;;;;;;5092874;28;20024;-78
2021/10/18 06:08:05;;;;;;;;;;;230.50;2252.80;;;;;;5091964;28;20024;-78
2021/10/18 06:10:30;;;;;;;69.68;40.25;;;230.60;2252.80;;;;;;5091833;28;19973;-77
2021/10/18 06:12:56;;;;;;;;;;;230.70;2252.80;;;;;;5091872;28;20534;-77
2021/10/18 06:15:22;;;;;;;77.90;46.55;;;230.80;2252.80;;;;;;5091263;28;20006;-78
2021/10/18 06:17:47;;;;;;;;;;;230.80;2252.80;;;;;;5091017;28;20426;-78
2021/10/18 06:20:14;;;;;;;92.65;49.97;;;230.60;2252.80;;;;;;5091556;28;20021;-79
2021/10/18 06:22:40;;;;;;;79.30;41.08;;;230.50;2252.80;;;;;;5092935;28;20020;-80
2021/10/18 06:25:06;;;;;;;79.80;42.58;;;205.60;2252.80;;;;;;5093298;28;20030;-79
2021/10/18 06:27:33;;;;;;;73.22;39.63;;;205.60;2252.80;;;;;;5094668;28;20024;-81
2021/10/18 06:29:58;;;;;;;71.40;38.47;;;205.50;2252.80;;;;;;5096300;28;20032;-79
2021/10/18 06:32:24;;;;;;;80.25;42.05;;;205.70;2252.80;;;;;;5096440;28;20028;-78
2021/10/18 06:34:50;;;;;;;;;;;230.40;2252.80;;;;;;5095453;28;20032;-79
2021/10/18 06:37:15;;;;;;;74.65;41.20;;;230.60;2252.80;;;;;;5095012;28;20298;-77
2021/10/18 06:39:41;;;;;;;;;;;230.80;2252.80;;;;;;5095248;28;20032;-77
2021/10/18 06:42:07;;;;;;;62.85;35.58;;;230.90;2252.80;;;;;;5094933;28;20007;-78
2021/10/18 06:44:33;;;;;;;67.43;38.25;;;256.10;2252.80;;;;;;5095943;28;20352;-78
2021/10/18 06:46:59;;;;;;;68.75;42.15;;;231.20;2252.80;;;;;;5094672;28;20035;-78
2021/10/18 06:49:24;;;;;;;;;;;231.10;2252.80;;;;;;5094957;28;20035;-78
2021/10/18 06:51:55;;;;;;;62.33;36.75;;;231.30;2252.80;;;;;;5094586;28;19916;-78
2021/10/18 06:54:22;;;;;;;86.82;54.20;;;256.10;2252.80;;;;;;5094825;28;20396;-79
2021/10/18 06:56:48;;;;;;;75.93;43.17;;;256.20;2252.80;;;;;;5094493;28;20057;-81
2021/10/18 06:59:16;;;;;;;68.30;41.72;;;256.30;2252.80;;;;;;5094742;28;20020;-80
2021/10/18 07:01:42;;;;;;;66.25;41.40;;;256.10;2252.80;;;;;;5094337;28;20036;-78
2021/10/18 07:04:09;;;;;;;76.20;44.65;;;256.20;2252.80;;;;;;5094725;28;20028;-79
2021/10/18 07:06:35;;;;;;;75.85;42.35;;;256.20;2252.80;;;;;;5094562;28;20064;-79
2021/10/18 07:09:02;;;;;;;67.97;41.13;;;256.30;2252.80;;;;;;5092527;28;20043;-78
2021/10/18 07:11:28;;;;;;;68.70;40.28;;;256.50;2252.80;;;;;;5094284;28;20047;-78
2021/10/18 07:13:54;;;;;;;68.32;40.88;;;256.70;2252.80;;;;;;5093848;28;20028;-77
2021/10/18 07:16:19;;;;;;;;;;;256.90;2252.80;;;;;;5094288;28;20044;-79
2021/10/18 07:18:45;;;;;;;69.15;40.70;;;256.90;2252.80;;;;;;5094220;28;19911;-80
2021/10/18 07:21:11;;;;;;;;;;;281.60;2278.40;;;;;;5094193;28;20120;-77
2021/10/18 07:23:37;;;;;;;67.32;40.08;;;281.70;2278.40;;;;;;5094303;28;19983;-77
2021/10/18 07:26:04;;;;;;;66.22;41.30;;;281.70;2278.40;;;;;;5094036;28;20020;-76
2021/10/18 07:28:31;;;;;;;72.68;43.50;;;281.80;2278.40;;;;;;5093868;28;20047;-77
2021/10/18 07:30:59;;;;;;;76.93;42.72;;;281.80;2278.40;;;;;;5093263;28;20381;-77
2021/10/18 07:33:25;;;;;;;77.88;44.13;;;281.90;2278.40;;;;;;5095350;28;20013;-79
2021/10/18 07:35:51;;;;;;;74.72;42.55;;;282.00;2278.40;;;;;;5094906;28;20096;-79
2021/10/18 07:38:19;;;;;;;72.68;42.35;;;282.00;2278.40;;;;;;5093796;28;20053;-78
2021/10/18 07:40:45;;;;;;;71.70;41.55;;;282.10;2278.40;;;;;;5095069;28;20062;-78
2021/10/18 07:43:11;;;;;;;72.25;43.08;;;282.10;2278.40;;;;;;5093604;28;20032;-81
2021/10/18 07:45:36;;;;;;;;;;;282.20;2278.40;;;;;;5094046;28;20036;-79
2021/10/18 07:48:03;;;;;;;81.80;42.92;;;282.30;2278.40;;;;;;5093083;28;19908;-79
2021/10/18 07:50:28;;;;;;;68.10;41.28;;;282.30;2278.40;;;;;;5095078;28;20073;-80
2021/10/18 07:52:54;;;;;;;80.05;42.83;;;282.50;2278.40;;;;;;5093671;28;20024;-79
2021/10/18 07:55:20;;;;;;;69.53;41.17;;;307.20;2304.00;;;;;;5094939;28;20028;-81
2021/10/18 07:57:51;;;;;;;63.67;41.60;;;307.30;2304.00;;;;;;5093433;28;20052;-80
2021/10/18 08:00:18;;;;;;;72.45;41.97;;;307.30;2304.00;;;;;;5093186;28;20055;-78
2021/10/18 08:02:44;;;;;;;75.78;43.80;;;307.40;2304.00;;;;;;5093172;28;20474;-79
2021/10/18 08:05:16;;;;;;;78.20;44.45;;;307.50;2304.00;;;;;;5094817;28;20050;-77
2021/10/18 08:07:47;;;;;;;68.28;41.65;;;307.60;2304.00;;;;;;5093238;28;20055;-79
2021/10/18 08:10:15;;;;;;;67.75;41.17;;;307.60;2304.00;;;;;;5094421;28;20123;-79
2021/10/18 08:12:41;;;;;;;65.28;37.85;;;307.80;2304.00;;;;;;5093534;28;20139;-81
2021/10/18 08:15:07;;;;;;;65.40;37.75;;;307.80;2304.00;;;;;;5094284;28;20099;-81
2021/10/18 08:17:32;;;;;;;;;;;308.00;2304.00;;;;;;5093925;28;20024;-79
2021/10/18 08:19:58;;;;;;;56.30;34.83;;;308.10;2304.00;;;;;;5093318;28;19955;-79
2021/10/18 08:22:24;;;;;;;56.03;34.58;;;308.10;2304.00;;;;;;5092445;28;20082;-80
2021/10/18 08:24:50;;;;;;;49.25;31.60;;;332.80;2329.60;;;;;;5093124;28;20024;-80
2021/10/18 08:27:16;;;;;;;45.40;23.38;;;332.90;2329.60;;;;;;5092415;28;20467;-81
2021/10/18 08:29:41;;;;;;;40.33;22.60;;;333.00;2329.60;;;;;;5092864;28;20028;-81
2021/10/18 08:32:07;;;;;;;36.50;22.92;;;333.00;2329.60;;;;;;5093343;28;20031;-81
2021/10/18 08:34:33;;;;;;;38.58;24.35;;;333.10;2329.60;;;;;;5092836;28;20020;-80
2021/10/18 08:36:59;;;;;;;36.72;23.35;;;333.20;2329.60;;;;;;5093251;28;20069;-81
2021/10/18 08:42:14;;;;;;;29.90;17.23;;;333.40;2329.60;;;;;;5094618;28;19915;-80
2021/10/18 08:44:40;;;;;;;29.77;18.58;;;333.40;2329.60;;;;;;5092873;28;20024;-80
2021/10/18 08:47:05;;;;;;;33.08;18.38;;;333.50;2329.60;;;;;;5092768;28;20032;-80
2021/10/18 08:49:31;;;;;;;;;;;333.50;2329.60;;;;;;5093845;28;20109;-78
2021/10/18 08:51:57;;;;;;;24.05;14.65;;;333.60;2329.60;;;;;;5092333;28;20375;-81
2021/10/18 08:54:23;;;;;;;20.60;14.38;;;333.70;2329.60;;;;;;5093263;28;20020;-81
2021/10/18 08:56:49;;;;;;;30.80;15.70;;;358.40;2329.60;;;;;;5091993;28;20456;-82
2021/10/18 08:59:19;;;;;;;21.73;14.05;;;358.50;2329.60;;;;;;5093095;28;20055;-81
2021/10/18 09:01:50;;;;;;;24.90;14.50;;;358.70;2329.60;;;;;;5092820;28;20107;-82
2021/10/18 09:04:16;;;;;;;23.30;13.32;;;358.90;2329.60;;;;;;5094257;28;20476;-81
2021/10/18 09:06:46;;;;;;;23.33;13.98;;;359.00;2329.60;;;;;;5093374;28;20031;-83
2021/10/18 09:09:13;;;;;;;21.75;11.77;;;359.10;2329.60;;;;;;5091532;28;20101;-82
2021/10/18 09:11:39;;;;;;;24.60;13.68;;;359.30;2329.60;;;;;;5092977;28;20039;-83
2021/10/18 09:14:05;;;;;;;25.88;11.70;;;384.00;2329.60;;;;;;5092938;28;20016;-83
2021/10/18 09:16:38;;;;;;;22.95;13.18;;;384.10;2329.60;;;;;;5092863;28;20024;-82
2021/10/18 09:19:17;;;;;;;17.30;11.05;;;384.40;2329.60;;;;;;5092435;28;20032;-81
2021/10/18 09:21:48;;;;;;;18.60;12.65;;;384.50;2329.60;;;;;;5092828;28;20024;-83
2021/10/18 09:24:17;;;;;;;19.88;11.05;;;384.70;2329.60;;;;;;5093842;28;20016;-79
2021/10/18 09:26:44;;;;;;;21.98;11.75;;;409.60;2355.20;;;;;;5092180;28;20056;-82
2021/10/18 09:29:16;;;;;;;23.70;12.65;;;409.70;2355.20;;;;;;5092780;28;20069;-81
2021/10/18 09:31:56;;;;;;;27.27;11.40;;;409.60;2355.20;;;;;;5093420;28;20106;-80
2021/10/18 09:34:21;;;;;;;14.90;10.35;;;409.90;2355.20;;;;;;5093426;28;20032;-81
2021/10/18 09:36:47;;;;;;;17.98;10.00;;;410.00;2355.20;;;;;;5092189;28;20403;-81
2021/10/18 09:39:24;;;;;;;17.80;10.50;;;410.20;2355.20;;;;;;5091836;28;20033;-81
2021/10/18 09:42:10;;;;;;;15.05;8.25;;;410.30;2355.20;;;;;;5085507;28;20158;-84
2021/10/18 10:56:28;;;;;;;10.68;4.78;;;486.70;1868.80;;;;;;5096610;28;20042;-81
2021/10/18 10:59:07;;;;;;;8.88;4.85;;;487.00;1792.00;;;;;;5095293;28;20024;-84
2021/10/18 11:02:06;;;;;;;8.60;4.55;;;487.00;1792.00;;;;;;5096990;28;20150;-83
2021/10/18 11:04:31;;;;;;;7.25;4.35;;;487.10;1817.60;;;;;;5096753;28;20046;-82
2021/10/18 11:07:26;;;;;;;7.97;4.00;;;487.10;1715.20;;;;;;5095278;28;20028;-84
2021/10/18 11:09:56;;;;;;;7.28;4.57;;;487.30;1766.40;;;;;;5093017;28;20048;-82
2021/10/18 11:12:32;;;;;;;7.82;4.35;;;487.30;1715.20;;;;;;5094002;28;20055;-85
2021/10/18 11:15:06;;;;;;;7.35;5.75;;;487.20;1740.80;;;;;;5095208;28;20059;-84
2021/10/18 11:18:00;;;;;;;7.97;4.68;;;512.00;1740.80;;;;;;5095085;28;20024;-85
2021/10/18 11:20:28;;;;;;;5.05;4.00;;;487.20;1689.60;;;;;;5090977;28;20028;-87
2021/10/18 11:22:57;;;;;;;9.15;4.63;;;512.00;1715.20;;;;;;5095420;28;20093;-86
2021/10/18 11:25:28;;;;;;;9.30;5.00;;;487.10;1766.40;;;;;;5095598;28;20024;-87
2021/10/18 11:27:59;;;;;;;7.55;4.82;;;487.00;1792.00;;;;;;5095307;28;20384;-83
2021/10/18 11:30:27;;;;;;;6.88;4.65;;;486.80;1740.80;;;;;;5095221;28;20028;-86
2021/10/18 11:32:58;;;;;;;9.60;4.47;;;486.80;1740.80;;;;;;5095652;28;20558;-86
2021/10/18 11:35:24;;;;;;;8.40;4.30;;;486.80;1766.40;;;;;;5095406;28;20032;-82
2021/10/18 11:37:58;;;;;;;6.18;4.28;;;486.90;1715.20;;;;;;5095094;28;20047;-86
2021/10/18 11:40:28;;;;;;;12.40;4.40;;;486.50;1766.40;;;;;;5094995;28;20049;-85
2021/10/18 11:42:57;;;;;;;8.35;4.93;;;486.50;1740.80;;;;;;5094766;28;20020;-85
2021/10/18 11:45:25;;;;;;;8.57;4.18;;;461.70;1766.40;;;;;;5094301;28;20049;-86
2021/10/18 11:47:51;;;;;;;11.40;4.88;;;461.70;1792.00;;;;;;5094708;28;20503;-83
2021/10/18 11:50:19;;;;;;;7.90;4.53;;;461.70;1766.40;;;;;;5095447;28;20024;-82
2021/10/18 11:52:53;;;;;;;9.27;4.40;;;461.50;1843.20;;;;;;5094530;28;20063;-81
2021/10/18 11:55:26;;;;;;;9.38;4.65;;;461.70;1792.00;;;;;;5094191;28;20089;-83
2021/10/18 11:57:53;;;;;;;10.95;5.43;;;486.70;1740.80;;;;;;5093915;28;20562;-81
2021/10/18 12:00:21;;;;;;;7.07;5.43;;;486.80;1766.40;;;;;;5094535;28;20059;-83
2021/10/18 12:02:47;;;;;;;8.05;5.40;;;487.00;1715.20;;;;;;5094227;28;20074;-83
2021/10/18 12:05:15;;;;;;;8.13;4.82;;;487.10;1715.20;;;;;;5093822;28;20047;-82
2021/10/18 12:07:43;;;;;;;9.50;5.03;;;487.30;1689.60;;;;;;5094798;28;20206;-82
2021/10/18 12:10:27;;;;;;;13.70;5.88;;;487.20;1715.20;;;;;;5093873;28;20623;-83
2021/10/18 12:13:21;;;;;;;11.05;5.35;;;487.20;1689.60;;;;;;5093290;28;20043;-83
2021/10/18 12:16:01;;;;;;;13.45;6.78;;;487.30;1664.00;;;;;;5092709;28;20033;-83
2021/10/18 12:18:28;;;;;;;10.88;5.22;;;487.10;1715.20;;;;;;5093665;28;20027;-82
2021/10/18 12:20:58;;;;;;;10.85;5.72;;;487.20;1689.60;;;;;;5093916;28;20043;-84
2021/10/18 12:23:25;;;;;;;10.45;5.47;;;487.00;1715.20;;;;;;5093953;28;20074;-84
2021/10/18 12:26:17;;;;;;;9.10;5.43;;;487.20;1689.60;;;;;;5093279;28;20112;-82
2021/10/18 12:28:46;;;;;;;10.60;6.03;;;487.10;1715.20;;;;;;5092438;28;20043;-80
2021/10/18 12:31:35;;;;;;;9.82;6.18;;;487.20;1715.20;;;;;;5093004;28;20055;-80
2021/10/18 12:34:06;;;;;;;19.02;11.30;;;487.00;1689.60;;;;;;5093266;28;20023;-81
2021/10/18 12:36:57;;;;;;;10.10;6.20;;;487.20;1740.80;;;;;;5092850;28;20447;-81
2021/10/18 12:39:43;;;;;;;9.43;6.18;;;487.30;1715.20;;;;;;5092776;28;20038;-80
2021/10/18 12:42:21;;;;;;;9.35;5.65;;;487.30;1740.80;;;;;;5093166;28;20028;-82
2021/10/18 12:45:00;;;;;;;9.82;5.50;;;487.20;1689.60;;;;;;5092524;28;20441;-81
2021/10/18 12:47:26;;;;;;;8.68;5.47;;;486.90;1766.40;;;;;;5086821;28;20112;-83
2021/10/18 12:50:04;;;;;;;9.57;5.35;;;486.70;1715.20;;;;;;5093413;28;20034;-81
2021/10/18 12:52:33;;;;;;;10.05;5.75;;;486.60;1740.80;;;;;;5072771;28;20039;-81
2021/10/18 12:55:08;;;;;;;12.75;7.20;;;486.50;1740.80;;;;;;5073792;28;20043;-81
2021/10/18 12:57:35;;;;;;;12.20;6.82;;;461.70;1766.40;;;;;;5073962;28;20097;-80
2021/10/18 13:00:11;;;;;;;14.80;7.80;;;461.70;1792.00;;;;;;5072592;28;20070;-81
2021/10/18 13:02:39;;;;;;;11.98;5.70;;;461.50;1843.20;;;;;;5078288;28;20016;-82
2021/10/18 13:05:09;;;;;;;11.60;5.68;;;461.50;1817.60;;;;;;5092593;28;20109;-80
2021/10/18 13:07:37;;;;;;;14.00;6.75;;;461.40;1843.20;;;;;;5094482;28;20086;-81
2021/10/18 13:10:04;;;;;;;14.30;7.65;;;461.20;1894.40;;;;;;5092647;28;20051;-83
2021/10/18 13:12:30;;;;;;;11.18;7.07;;;461.10;1868.80;;;;;;5092929;28;20082;-81
2021/10/18 13:14:56;;;;;;;15.50;8.57;;;460.90;1894.40;;;;;;5092730;28;20024;-79
2021/10/18 13:17:26;;;;;;;16.02;8.95;;;460.80;1894.40;;;;;;5092528;28;20034;-81
2021/10/18 13:19:53;;;;;;;10.25;7.10;;;460.80;1945.60;;;;;;5092661;28;20029;-82
2021/10/18 13:22:20;;;;;;;11.85;6.22;;;460.90;1945.60;;;;;;5092822;28;20034;-82
2021/10/18 13:24:46;;;;;;;12.30;6.13;;;460.90;1920.00;;;;;;5092704;28;20479;-81
2021/10/18 13:27:12;;;;;;;8.52;4.95;;;461.20;1920.00;;;;;;5092502;28;20024;-82
2021/10/18 13:29:38;;;;;;;8.57;6.45;;;461.30;1920.00;;;;;;5092642;28;20020;-81
2021/10/18 13:32:04;;;;;;;12.15;6.28;;;461.20;1920.00;;;;;;5092906;28;20149;-82
2021/10/18 13:34:32;;;;;;;9.52;6.05;;;461.20;1894.40;;;;;;5092154;28;20356;-80
2021/10/18 13:36:59;;;;;;;10.90;6.57;;;461.40;1843.20;;;;;;5092435;28;20039;-80